Pioneer, New York
Current Conditions -  °F | °C
As of 9:51 PM on Tuesday 25 Nov 2014 (Local Time) from KALB Reporting Station
Broken Clouds Broken Clouds  
Wind Chill: 42°   Ceiling: 26000
Heat Index: 42°   Visibility: 10mi
Dew Point: 26°   Wind: 0mph
Humidity: 53%   Direction: NA
Pressure: 30.12"   Gusts: NA
Location:  43.002°N, 73.8759°W
Report Text: KALB 260251Z 00000KT 10SM BKN260 06/M03 A3012 RMK AO2 SLP201 T00561033 53033
Loading
Personal Weather Stations






























Interactive Weather Map New forecast layout! Learn more

10-Day Weather Forecast

Advertisements
Track Severe Weather on mobile